This is the latest recevied weather packets stored in our database for station/object IK4PKL-13. If no packets are shown the sender has not sent any weather packets the latest 10 day(s).
| Time | Temp. | Humidity | Pressure | Rain* | Wind** | Luminosity | Snow |
|---|---|---|---|---|---|---|---|
| 1777658721 | 16.11° C | 37% | 1028.4 hPa | 0 mm | - | 7 W/m² | - |
| 1777657580 | 17.22° C | 33% | 1028.5 hPa | 0 mm | - | 18 W/m² | - |
| 1777653938 | 16.67° C | 33% | 1028.5 hPa | 0 mm | - | 58 W/m² | - |
| 1777653330 | 16.67° C | 34% | 1028.6 hPa | 0 mm | - | 104 W/m² | - |
| 1777651537 | 17.22° C | 34% | 1028.7 hPa | 0 mm | - | 181 W/m² | - |
| 1777637745 | 16.67° C | 38% | 1030 hPa | 0 mm | - | 659 W/m² | - |
| 1777634150 | 16.67° C | 37% | 1030.6 hPa | 0 mm | - | 689 W/m² | - |
| 1777633522 | 16.11° C | 38% | 1030.7 hPa | 0 mm | - | 690 W/m² | - |
| 1777632946 | 16.11° C | 38% | 1030.7 hPa | 0 mm | - | 687 W/m² | - |
| 1777632338 | 16.11° C | 38% | 1030.7 hPa | 0 mm | - | 684 W/m² | - |
| 1777628738 | 16.11° C | 36% | 1030.8 hPa | 0 mm | - | 638 W/m² | - |
| 1777622738 | 15.56° C | 45% | 1030.4 hPa | 0 mm | - | 67 W/m² | - |
| 1777619141 | 15° C | 42% | 1030 hPa | 0 mm | - | 315 W/m² | - |
| 1777617937 | 15° C | 41% | 1029.8 hPa | 0 mm | - | 157 W/m² | - |
| 1777614929 | 11.67° C | 59% | 1029.6 hPa | 0 mm | - | 106 W/m² | - |
| 1777607122 | 13.33° C | 44% | 1028.7 hPa | 0 mm | - | 0 W/m² | - |
| 1777604145 | 13.33° C | 45% | 1028.8 hPa | 0 mm | - | 0 W/m² | - |
| 1777598739 | 13.33° C | 47% | 1028.9 hPa | 0 mm | - | 0 W/m² | - |
| 1777595121 | 13.89° C | 47% | 1029 hPa | 0 mm | - | 0 W/m² | - |
| 1777590945 | 13.89° C | 51% | 1028.8 hPa | 0 mm | - | 0 W/m² | - |
| 1777590337 | 13.33° C | 52% | 1028.9 hPa | 0 mm | - | 0 W/m² | - |
| 1777587938 | 7.78° C | 76% | 1028.8 hPa | 0 mm | - | 0 W/m² | - |
| 1777586145 | 8.33° C | 74% | 1028.6 hPa | 0 mm | - | 0 W/m² | - |
| 1777585537 | 8.89° C | 73% | 1028.5 hPa | 0 mm | - | 0 W/m² | - |
| 1777577748 | 13.33° C | 54% | 1027.7 hPa | 0 mm | - | 0 W/m² | - |
* Rain latest hour (hover to see other rain measurements)
** Current wind speed in m/s (hover to see current wind gust speed)